Time;durP1;ratioP1;P1;durP2;ratioP2;P2;SDS_P1;SDS_P2;PMS_P1;PMS_P2;Temp;Humidity;BMP_temperature;BMP_pressure;BME280_temperature;BME280_humidity;BME280_pressure;Samples;Min_cycle;Max_cycle;Signal;HPM_P1;HPM_P2
2023/04/22 00:03:02;;;;;;;6.22;3.37;;;;;;;8.16;79.00;99932.42;1762450;81;21213;-57
2023/04/22 00:06:08;;;;;;;6.97;2.90;;;;;;;8.16;79.00;99924.25;1762416;81;21268;-57
2023/04/22 00:09:14;;;;;;;7.03;3.60;;;;;;;8.18;79.01;99927.66;1762412;81;21342;-58
2023/04/22 00:12:13;;;;;;;7.90;3.40;;;;;;;8.17;78.95;99931.39;1762577;81;21477;-57
2023/04/22 00:15:20;;;;;;;9.98;3.35;;;;;;;8.15;78.93;99926.64;1762576;81;21201;-56
2023/04/22 00:18:27;;;;;;;7.37;3.20;;;;;;;8.13;79.00;99925.95;1762507;81;21346;-57
2023/04/22 00:21:32;;;;;;;11.85;3.47;;;;;;;8.13;78.99;99927.31;1762435;81;21197;-57
2023/04/22 00:24:37;;;;;;;6.87;3.17;;;;;;;8.10;78.94;99931.75;1762478;81;21200;-57
2023/04/22 00:27:43;;;;;;;7.80;3.27;;;;;;;8.06;79.03;99929.88;1762355;81;21189;-57
2023/04/22 00:30:50;;;;;;;9.98;3.47;;;;;;;8.07;79.06;99941.11;1762454;81;21197;-57
2023/04/22 00:33:56;;;;;;;9.95;3.08;;;;;;;8.03;79.00;99941.63;1762526;81;21355;-58
2023/04/22 00:37:01;;;;;;;10.08;3.10;;;;;;;7.99;79.03;99947.91;1762351;81;21248;-58
2023/04/22 00:40:08;;;;;;;9.10;2.95;;;;;;;7.96;79.05;99944.17;1765732;79;21220;-57
2023/04/22 00:43:13;;;;;;;10.03;3.47;;;;;;;7.94;79.12;99942.66;1774413;80;21275;-58
2023/04/22 00:46:19;;;;;;;8.90;3.60;;;;;;;7.95;79.14;99948.43;1776369;80;21240;-56
2023/04/22 00:49:27;;;;;;;10.03;3.25;;;;;;;7.90;79.06;99947.58;1776260;81;21196;-57
2023/04/22 00:52:34;;;;;;;9.08;3.30;;;;;;;7.87;79.05;99947.06;1775994;80;21212;-59
2023/04/22 00:55:40;;;;;;;12.05;3.85;;;;;;;7.84;79.16;99946.91;1776203;80;21239;-58
2023/04/22 00:58:46;;;;;;;7.15;3.47;;;;;;;7.82;79.13;99948.94;1758278;81;21243;-58
2023/04/22 01:01:52;;;;;;;10.38;3.60;;;;;;;7.81;79.19;99943.16;1775655;81;21216;-58
2023/04/22 01:04:57;;;;;;;8.58;3.37;;;;;;;7.83;79.27;99935.67;1757872;81;21319;-58
2023/04/22 01:08:02;;;;;;;9.78;3.90;;;;;;;7.85;79.24;99936.87;1776351;81;21216;-58
2023/04/22 01:11:10;;;;;;;10.48;4.03;;;;;;;7.83;79.23;99928.86;1776268;81;21228;-58
2023/04/22 01:14:15;;;;;;;12.68;3.75;;;;;;;7.83;79.25;99934.81;1775118;80;21298;-58
2023/04/22 01:17:23;;;;;;;8.90;3.05;;;;;;;7.83;79.28;99929.36;1776314;80;21220;-58
2023/04/22 01:20:29;;;;;;;8.45;3.02;;;;;;;7.85;79.37;99936.87;1776401;81;21339;-58
2023/04/22 01:23:37;;;;;;;15.72;4.22;;;;;;;7.91;79.44;99938.91;1758850;80;21201;-58
2023/04/22 01:26:43;;;;;;;11.30;4.00;;;;;;;7.89;79.31;99935.48;1758772;80;21402;-57
2023/04/22 01:29:49;;;;;;;8.95;3.52;;;;;;;7.88;79.27;99948.25;1775749;81;21240;-58
2023/04/22 01:32:55;;;;;;;9.38;3.42;;;;;;;7.87;79.22;99956.09;1775489;80;21243;-57
2023/04/22 01:36:03;;;;;;;11.57;3.67;;;;;;;7.87;79.21;99951.15;1776265;80;21192;-57
2023/04/22 01:39:10;;;;;;;10.58;3.30;;;;;;;7.85;79.22;99957.30;1775765;80;21243;-57
2023/04/22 01:42:17;;;;;;;8.53;3.65;;;;;;;7.84;79.20;99961.03;1773029;79;21205;-57
2023/04/22 01:45:23;;;;;;;9.75;3.67;;;;;;;7.81;79.21;99956.78;1773267;81;21274;-57
2023/04/22 01:48:29;;;;;;;7.87;3.83;;;;;;;7.78;79.20;99950.31;1740994;81;21338;-58
2023/04/22 01:51:35;;;;;;;13.62;3.55;;;;;;;7.78;79.22;99945.36;1773864;80;21279;-57
2023/04/22 01:54:44;;;;;;;8.38;3.70;;;;;;;7.78;79.28;99947.59;1766768;81;21244;-58
2023/04/22 01:57:51;;;;;;;8.50;3.58;;;;;;;7.79;79.28;99947.05;1773912;81;21216;-58
2023/04/22 02:00:56;;;;;;;11.85;4.47;;;;;;;7.77;79.31;99943.14;1773799;81;21212;-58
2023/04/22 02:04:05;;;;;;;14.00;3.92;;;;;;;7.80;79.45;99948.25;1773879;81;21443;-58
2023/04/22 02:07:11;;;;;;;10.90;3.70;;;;;;;7.81;79.38;99954.05;1773725;79;21374;-57
2023/04/22 02:10:17;;;;;;;9.58;3.75;;;;;;;7.81;79.34;99950.47;1773262;80;21196;-57
2023/04/22 02:13:23;;;;;;;10.55;3.98;;;;;;;7.80;79.32;99950.14;1775077;81;21349;-59
2023/04/22 02:16:28;;;;;;;7.78;3.47;;;;;;;7.79;79.33;99952.50;1773361;81;21188;-57
2023/04/22 02:19:33;;;;;;;8.38;3.92;;;;;;;7.80;79.38;99960.50;1773762;80;21188;-57
2023/04/22 02:22:41;;;;;;;14.55;3.95;;;;;;;7.82;79.42;99960.37;1772999;81;21354;-56
2023/04/22 02:25:47;;;;;;;11.30;3.37;;;;;;;7.84;79.44;99970.56;1773562;81;21220;-57
2023/04/22 02:28:54;;;;;;;14.30;4.22;;;;;;;7.86;79.49;99969.89;1773723;81;21335;-57
2023/04/22 02:31:59;;;;;;;13.00;4.37;;;;;;;7.84;79.36;99967.34;1772866;81;21719;-57
2023/04/22 02:35:06;;;;;;;12.28;3.92;;;;;;;7.86;79.36;99969.89;1773634;80;21366;-57
2023/04/22 02:38:16;;;;;;;9.23;4.30;;;;;;;7.85;79.37;99968.20;1773419;81;21386;-57
2023/04/22 02:41:23;;;;;;;13.08;4.28;;;;;;;7.82;79.30;99963.09;1773826;81;21641;-58
2023/04/22 02:44:28;;;;;;;11.28;4.42;;;;;;;7.81;79.36;99971.77;1761286;81;21292;-57
2023/04/22 02:47:35;;;;;;;15.65;4.17;;;;;;;7.79;79.35;99968.35;1762434;81;21221;-57
2023/04/22 02:50:41;;;;;;;12.15;4.67;;;;;;;7.78;79.35;99985.73;1762194;81;21730;-57
2023/04/22 02:53:46;;;;;;;8.23;3.80;;;;;;;7.81;79.47;99994.06;1762510;81;21260;-57
2023/04/22 02:56:52;;;;;;;9.83;4.10;;;;;;;7.82;79.51;99985.72;1763033;81;21271;-57
2023/04/22 02:59:57;;;;;;;7.12;3.72;;;;;;;7.84;79.50;99981.47;1762622;81;21372;-58
2023/04/22 03:03:03;;;;;;;11.03;3.85;;;;;;;7.86;79.52;99986.24;1762539;81;21345;-58
2023/04/22 03:06:10;;;;;;;12.75;3.80;;;;;;;7.87;79.53;99986.08;1762488;81;21327;-58
2023/04/22 03:09:16;;;;;;;12.70;4.00;;;;;;;7.89;79.52;99986.77;1762568;81;21216;-58
2023/04/22 03:12:23;;;;;;;8.58;3.85;;;;;;;7.89;79.46;99991.36;1762674;81;21390;-58
2023/04/22 03:15:28;;;;;;;11.85;4.12;;;;;;;7.89;79.46;99995.44;1762493;81;21245;-58
2023/04/22 03:18:35;;;;;;;17.00;4.72;;;;;;;7.86;79.43;99997.14;1762462;81;21189;-58
2023/04/22 03:21:41;;;;;;;11.30;4.15;;;;;;;7.84;79.46;99992.36;1763047;81;21197;-58
2023/04/22 03:24:48;;;;;;;9.48;4.28;;;;;;;7.87;79.51;99997.47;1762191;81;21721;-58
2023/04/22 03:27:55;;;;;;;10.38;3.87;;;;;;;7.88;79.54;100008.20;1762934;81;21863;-57
2023/04/22 03:31:00;;;;;;;15.68;4.60;;;;;;;7.90;79.55;100009.39;1761881;81;21189;-57
2023/04/22 03:34:06;;;;;;;10.30;3.72;;;;;;;7.93;79.53;100010.45;1761670;81;21358;-57
2023/04/22 03:37:12;;;;;;;11.25;3.85;;;;;;;7.96;79.54;100013.67;1761172;81;21241;-57
2023/04/22 03:40:20;;;;;;;11.30;3.72;;;;;;;7.98;79.52;100009.41;1762340;81;21260;-58
2023/04/22 03:43:28;;;;;;;9.30;3.62;;;;;;;7.99;79.55;100010.61;1762152;80;21193;-58
2023/04/22 03:46:35;;;;;;;14.65;4.30;;;;;;;8.02;79.47;100013.52;1771767;80;21212;-56
2023/04/22 03:49:37;;;;;;;10.63;3.98;;;;;;;7.98;79.42;100025.27;1771708;81;21205;-56
2023/04/22 03:52:29;;;;;;;11.63;4.17;;;;;;;7.97;79.37;100026.80;1771861;81;21225;-58
2023/04/22 03:55:35;;;;;;;11.18;3.92;;;;;;;7.96;79.37;100037.36;1771752;80;21211;-58
2023/04/22 03:58:41;;;;;;;11.15;4.17;;;;;;;7.95;79.38;100047.41;1771689;81;21205;-57
2023/04/22 04:01:48;;;;;;;16.85;4.58;;;;;;;7.96;79.36;100046.91;1771605;81;21248;-58
2023/04/22 04:04:56;;;;;;;12.35;4.40;;;;;;;7.98;79.36;100048.93;1771794;81;21165;-58
2023/04/22 04:08:02;;;;;;;8.18;4.30;;;;;;;7.98;79.34;100055.25;1771701;81;21216;-57
2023/04/22 04:11:09;;;;;;;10.85;3.90;;;;;;;8.01;79.37;100053.55;1771673;81;21211;-57
2023/04/22 04:14:14;;;;;;;6.78;3.58;;;;;;;8.04;79.39;100049.65;1771657;81;21189;-57
2023/04/22 04:17:24;;;;;;;8.90;4.10;;;;;;;8.04;79.32;100063.27;1771742;80;21252;-58
2023/04/22 04:20:31;;;;;;;15.05;4.30;;;;;;;8.08;79.35;100060.55;1771692;81;21157;-58
2023/04/22 04:23:37;;;;;;;7.95;3.52;;;;;;;8.08;79.22;100049.14;1771693;80;21161;-57
2023/04/22 04:26:47;;;;;;;11.38;4.00;;;;;;;8.08;79.20;100060.55;1771665;81;21220;-58
2023/04/22 04:29:55;;;;;;;8.95;3.83;;;;;;;8.08;79.17;100067.36;1771544;81;21303;-58
2023/04/22 04:33:06;;;;;;;13.58;4.25;;;;;;;8.06;79.11;100066.66;1771229;81;21679;-58
2023/04/22 04:36:14;;;;;;;17.35;4.30;;;;;;;8.07;79.18;100068.39;1771495;81;21211;-57
2023/04/22 04:39:21;;;;;;;13.65;4.70;;;;;;;8.09;79.26;100069.05;1759265;81;21222;-58
2023/04/22 04:42:23;;;;;;;14.45;6.50;;;;;;;8.11;79.27;100073.83;1741631;80;21285;-58
2023/04/22 04:45:32;;;;;;;11.18;4.42;;;;;;;8.11;79.27;100076.56;1737633;81;21406;-57
2023/04/22 04:48:38;;;;;;;12.00;4.37;;;;;;;8.15;79.30;100077.95;1722863;81;21188;-57
2023/04/22 04:51:45;;;;;;;19.35;4.97;;;;;;;8.18;79.35;100070.27;1747602;81;21223;-57
2023/04/22 04:54:50;;;;;;;15.38;4.78;;;;;;;8.24;79.35;100082.42;1690030;83;21246;-57
2023/04/22 04:57:56;;;;;;;13.40;4.45;;;;;;;8.31;79.41;100080.73;1740307;81;21585;-58
2023/04/22 05:01:02;;;;;;;10.20;4.40;;;;;;;8.38;79.42;100081.75;1734567;82;21240;-58
2023/04/22 05:04:10;;;;;;;14.00;4.37;;;;;;;8.44;79.36;100086.52;1722836;83;21726;-59
2023/04/22 05:07:17;;;;;;;12.63;3.85;;;;;;;8.51;79.35;100088.92;1688586;83;21785;-59
2023/04/22 05:10:23;;;;;;;9.10;4.30;;;;;;;8.56;79.34;100083.28;1692806;83;21291;-58
2023/04/22 05:13:29;;;;;;;7.47;3.50;;;;;;;8.65;79.34;100083.64;1705025;83;21280;-58
2023/04/22 05:16:36;;;;;;;12.25;4.25;;;;;;;8.79;79.38;100085.68;1706046;83;21240;-59
2023/04/22 05:19:44;;;;;;;9.48;3.70;;;;;;;8.94;79.36;100088.03;1727915;82;21180;-58
2023/04/22 05:22:50;;;;;;;12.88;3.77;;;;;;;9.09;79.31;100080.86;1735349;82;21876;-59
2023/04/22 05:25:55;;;;;;;13.62;3.75;;;;;;;9.19;79.18;100087.50;1725024;83;21253;-59
2023/04/22 05:29:03;;;;;;;11.03;3.65;;;;;;;9.29;79.16;100094.99;1725023;82;21798;-58
2023/04/22 05:32:09;;;;;;;8.60;3.40;;;;;;;9.43;79.17;100090.67;1724971;81;21267;-59
2023/04/22 05:35:16;;;;;;;14.10;4.30;;;;;;;9.53;79.03;100093.52;1724959;81;21738;-58
2023/04/22 05:38:22;;;;;;;10.70;3.70;;;;;;;9.58;78.89;100099.82;1726322;81;21224;-58
2023/04/22 05:41:29;;;;;;;12.55;3.08;;;;;;;9.63;78.86;100111.94;1725526;81;21288;-59
2023/04/22 05:44:34;;;;;;;12.78;4.03;;;;;;;9.74;78.85;100099.25;1725835;81;21734;-58
2023/04/22 05:47:41;;;;;;;10.55;3.83;;;;;;;9.77;78.74;100104.37;1704550;82;21738;-58
2023/04/22 05:50:48;;;;;;;14.55;4.37;;;;;;;9.86;78.76;100103.29;1727942;81;21198;-59
2023/04/22 05:53:54;;;;;;;14.30;3.10;;;;;;;9.96;78.84;100108.03;1726288;82;21549;-59
2023/04/22 05:57:01;;;;;;;9.08;3.80;;;;;;;10.03;78.79;100108.17;1726060;83;21245;-59
2023/04/22 06:00:09;;;;;;;13.45;3.30;;;;;;;10.11;78.76;100102.19;1726594;81;21217;-59
2023/04/22 06:03:17;;;;;;;11.55;3.40;;;;;;;10.13;78.59;100101.47;1730552;81;21228;-58
2023/04/22 06:06:27;;;;;;;13.15;3.95;;;;;;;10.14;78.53;100105.94;1759478;81;21276;-58
2023/04/22 06:09:33;;;;;;;12.93;4.45;;;;;;;10.20;78.53;100110.67;1746302;80;21733;-59
2023/04/22 06:12:40;;;;;;;10.45;3.17;;;;;;;10.24;78.45;100116.64;1743214;81;21201;-59
2023/04/22 06:15:46;;;;;;;11.70;3.52;;;;;;;10.26;78.36;100109.95;1737333;81;21367;-59
2023/04/22 06:18:53;;;;;;;12.50;3.50;;;;;;;10.30;78.34;100110.45;1736766;82;21387;-59
2023/04/22 06:21:58;;;;;;;10.90;3.35;;;;;;;10.33;78.27;100108.72;1736487;82;21236;-59
2023/04/22 06:25:04;;;;;;;8.28;3.65;;;;;;;10.41;78.26;100110.89;1736171;81;21216;-58
2023/04/22 06:28:09;;;;;;;12.78;3.80;;;;;;;10.53;78.32;100106.69;1736207;82;21630;-58
2023/04/22 06:31:17;;;;;;;11.53;3.33;;;;;;;10.71;78.41;100117.33;1736549;82;21346;-58
2023/04/22 06:34:25;;;;;;;10.98;4.03;;;;;;;10.83;78.18;100125.44;1744246;81;21744;-59
2023/04/22 06:37:30;;;;;;;14.50;3.20;;;;;;;10.97;78.21;100129.27;1742996;82;21311;-60
2023/04/22 06:40:36;;;;;;;14.13;2.95;;;;;;;11.14;78.17;100129.45;1751589;80;21840;-59
2023/04/22 06:43:43;;;;;;;10.28;3.10;;;;;;;11.29;78.06;100130.34;1743762;81;21200;-58
2023/04/22 06:47:08;;;;;;;13.00;3.17;;;;;;;11.35;77.77;100133.70;1747064;79;21223;-58
2023/04/22 06:50:25;;;;;;;6.12;2.47;;;;;;;11.40;77.60;100138.11;1750387;80;21237;-60
2023/04/22 06:53:32;;;;;;;6.65;2.72;;;;;;;11.49;77.55;100135.60;1778351;80;21241;-58
2023/04/22 06:56:39;;;;;;;8.15;2.58;;;;;;;11.51;77.40;100143.13;1715311;83;21307;-58
2023/04/22 06:59:47;;;;;;;9.80;2.67;;;;;;;11.56;77.30;100137.94;1736933;81;21346;-60
2023/04/22 07:02:54;;;;;;;10.63;3.65;;;;;;;11.59;77.29;100145.24;1723625;82;21283;-59
2023/04/22 07:06:01;;;;;;;11.30;3.60;;;;;;;11.77;77.39;100140.80;1750794;80;21200;-58
2023/04/22 07:09:07;;;;;;;7.97;2.75;;;;;;;11.76;77.09;100138.59;1750913;81;21236;-58
2023/04/22 07:12:13;;;;;;;13.48;2.47;;;;;;;11.91;77.33;100139.42;1743166;81;21228;-58
2023/04/22 07:15:20;;;;;;;7.58;2.80;;;;;;;12.22;77.50;100142.45;1747634;81;21180;-59
2023/04/22 07:18:27;;;;;;;8.58;2.60;;;;;;;12.39;77.17;100133.80;1750723;82;21357;-58
2023/04/22 07:21:34;;;;;;;9.75;2.42;;;;;;;12.36;76.78;100136.94;1750319;80;21441;-59
2023/04/22 07:24:41;;;;;;;11.78;3.00;;;;;;;12.45;76.84;100140.40;1743364;81;21394;-59
2023/04/22 07:27:49;;;;;;;10.95;2.92;;;;;;;12.64;76.96;100141.14;1742865;82;21374;-59
2023/04/22 07:30:54;;;;;;;13.28;3.00;;;;;;;12.71;76.74;100133.84;1742886;82;21208;-59
2023/04/22 07:34:02;;;;;;;10.15;2.85;;;;;;;12.83;76.85;100139.98;1743007;82;21279;-59
2023/04/22 07:37:08;;;;;;;8.85;2.87;;;;;;;13.00;76.79;100138.70;1743185;81;21749;-59
2023/04/22 07:40:15;;;;;;;10.35;2.62;;;;;;;13.22;76.78;100145.87;1727421;82;21220;-59
2023/04/22 07:43:21;;;;;;;8.05;2.85;;;;;;;13.41;76.66;100146.55;1746563;81;21203;-60
2023/04/22 07:46:26;;;;;;;9.55;2.58;;;;;;;13.70;76.68;100142.74;1757205;80;21201;-60
2023/04/22 07:49:32;;;;;;;8.45;2.75;;;;;;;13.91;76.42;100138.55;1795193;79;21280;-58
2023/04/22 07:52:39;;;;;;;13.43;3.05;;;;;;;13.95;75.88;100143.13;1779896;80;21912;-59
2023/04/22 07:55:48;;;;;;;7.97;2.95;;;;;;;13.85;75.57;100147.62;1749437;80;21220;-59
2023/04/22 07:58:53;;;;;;;10.50;3.35;;;;;;;13.92;75.56;100147.66;1753061;81;21196;-59
2023/04/22 08:01:59;;;;;;;7.72;2.95;;;;;;;13.92;75.37;100144.91;1748406;80;21737;-59
2023/04/22 08:05:05;;;;;;;12.93;3.15;;;;;;;14.07;75.55;100152.48;1753884;80;21267;-59
2023/04/22 08:08:11;;;;;;;7.95;2.50;;;;;;;14.32;75.71;100150.94;1742829;80;21248;-59
2023/04/22 08:11:17;;;;;;;11.22;2.65;;;;;;;14.53;75.63;100144.79;1742825;80;21197;-59
2023/04/22 08:14:23;;;;;;;10.58;2.95;;;;;;;14.64;75.32;100148.84;1743018;81;21207;-59
2023/04/22 08:17:29;;;;;;;10.00;3.08;;;;;;;14.76;75.25;100149.95;1742159;81;21761;-58
2023/04/22 08:20:35;;;;;;;11.10;3.40;;;;;;;14.79;74.76;100157.80;1715873;81;21705;-59
2023/04/22 08:23:40;;;;;;;13.45;3.67;;;;;;;14.55;74.09;100159.73;1715011;82;21188;-59
2023/04/22 08:26:46;;;;;;;9.53;3.10;;;;;;;14.49;74.25;100155.06;1715868;82;21275;-58
2023/04/22 08:29:52;;;;;;;19.42;3.33;;;;;;;14.53;74.46;100159.08;1721839;82;21570;-59
2023/04/22 08:33:00;;;;;;;14.15;3.33;;;;;;;14.47;74.14;100164.05;1744190;81;21224;-59
2023/04/22 08:36:00;;;;;;;10.30;3.10;;;;;;;14.32;74.08;100164.71;1744434;81;21748;-58
2023/04/22 08:39:01;;;;;;;8.85;2.83;;;;;;;14.20;74.09;100164.44;1738767;81;21386;-59
2023/04/22 08:41:55;;;;;;;15.28;3.42;;;;;;;14.10;74.10;100165.33;1728210;82;21321;-58
2023/04/22 08:44:42;;;;;;;12.28;3.77;;;;;;;13.97;73.98;100178.17;1695044;82;21773;-59
2023/04/22 08:47:38;;;;;;;11.00;3.37;;;;;;;13.85;74.12;100171.52;1733115;82;21219;-58
2023/04/22 08:50:44;;;;;;;15.85;3.80;;;;;;;13.78;74.17;100170.09;1740708;80;21219;-58
2023/04/22 08:53:50;;;;;;;12.05;3.70;;;;;;;13.78;74.34;100170.64;1740083;81;21209;-59
2023/04/22 08:56:56;;;;;;;16.90;3.40;;;;;;;13.88;74.50;100170.59;1754346;80;21223;-58
2023/04/22 09:00:02;;;;;;;9.70;3.27;;;;;;;13.98;74.45;100179.34;1738293;80;22047;-59
2023/04/22 09:03:08;;;;;;;14.68;3.87;;;;;;;14.01;74.30;100169.30;1701518;81;21193;-58
2023/04/22 09:06:13;;;;;;;13.28;4.10;;;;;;;14.11;74.34;100177.20;1702321;82;21304;-59
2023/04/22 09:09:19;;;;;;;11.88;3.72;;;;;;;14.26;74.35;100169.66;1734201;80;21200;-59
2023/04/22 09:12:26;;;;;;;8.93;3.52;;;;;;;14.56;74.58;100167.79;1774381;79;21250;-58
2023/04/22 09:15:32;;;;;;;11.68;3.50;;;;;;;14.95;74.63;100175.33;1715713;83;21217;-58
2023/04/22 09:18:49;;;;;;;13.98;3.37;;;;;;;15.25;74.42;100180.78;1718431;80;21788;-58
2023/04/22 09:21:56;;;;;;;11.78;3.65;;;;;;;15.41;74.16;100172.65;1710282;81;21204;-59
2023/04/22 09:25:02;;;;;;;11.10;3.60;;;;;;;15.62;73.93;100167.75;1754416;79;21845;-59
2023/04/22 09:28:09;;;;;;;16.12;3.77;;;;;;;15.88;73.73;100176.01;1724547;80;21395;-59
2023/04/22 09:31:19;;;;;;;10.95;3.30;;;;;;;16.07;73.39;100179.26;1714290;81;21201;-59
2023/04/22 09:34:28;;;;;;;17.05;4.28;;;;;;;16.03;72.84;100171.08;1743500;81;21243;-59
2023/04/22 09:37:33;;;;;;;21.00;4.33;;;;;;;15.83;72.37;100175.80;1722088;82;21284;-59
2023/04/22 09:40:40;;;;;;;13.93;3.77;;;;;;;15.65;72.39;100182.49;1726261;80;21776;-59
2023/04/22 09:43:47;;;;;;;13.22;3.60;;;;;;;15.69;72.58;100182.92;1749875;79;21560;-59
2023/04/22 09:46:55;;;;;;;16.70;4.00;;;;;;;15.70;72.46;100181.33;1706809;83;22062;-58
2023/04/22 09:50:00;;;;;;;12.20;3.50;;;;;;;15.70;72.40;100195.12;1700934;82;21800;-58
2023/04/22 09:53:14;;;;;;;13.98;3.85;;;;;;;15.59;72.11;100184.73;1675494;85;21794;-58
2023/04/22 09:56:22;;;;;;;15.40;4.17;;;;;;;15.62;72.20;100178.78;1703324;82;21816;-59
2023/04/22 09:59:29;;;;;;;11.45;4.00;;;;;;;15.79;72.30;100179.20;1696147;83;21220;-59
2023/04/22 10:02:38;;;;;;;16.52;3.70;;;;;;;15.98;72.23;100179.16;1678518;84;21792;-60
2023/04/22 10:05:45;;;;;;;17.10;3.85;;;;;;;15.98;71.80;100173.63;1740784;82;21675;-59
2023/04/22 10:08:51;;;;;;;13.93;4.00;;;;;;;15.93;71.84;100173.45;1741219;82;21288;-58
2023/04/22 10:11:57;;;;;;;10.95;4.03;;;;;;;16.20;72.06;100170.95;1740635;81;21232;-58
2023/04/22 10:15:03;;;;;;;11.60;4.65;;;;;;;16.43;71.93;100168.52;1696637;84;21216;-58
2023/04/22 10:18:13;;;;;;;15.70;4.65;;;;;;;16.64;71.81;100166.53;1670434;86;21572;-58
2023/04/22 10:21:19;;;;;;;17.23;4.95;;;;;;;16.63;71.23;100173.14;1657254;83;21634;-59
2023/04/22 10:24:27;;;;;;;16.55;5.10;;;;;;;16.56;71.08;100175.06;1738977;82;21252;-58
2023/04/22 10:27:32;;;;;;;9.30;3.42;;;;;;;16.56;71.01;100181.45;1732274;82;21268;-58
2023/04/22 10:30:42;;;;;;;15.10;3.70;;;;;;;16.51;70.75;100184.58;1670269;85;21270;-58
2023/04/22 10:33:51;;;;;;;14.18;3.90;;;;;;;16.49;70.75;100196.37;1679112;85;21240;-58
2023/04/22 10:37:14;;;;;;;20.55;4.20;;;;;;;16.53;70.73;100185.19;1676986;85;21219;-58
2023/04/22 10:40:24;;;;;;;13.45;3.75;;;;;;;16.76;70.88;100184.13;1712081;83;21211;-57
2023/04/22 10:43:51;;;;;;;16.35;4.08;;;;;;;17.01;70.61;100175.38;1708161;82;21229;-59
2023/04/22 10:47:02;;;;;;;15.68;4.12;;;;;;;17.18;70.38;100171.85;1695472;84;21844;-59
2023/04/22 10:50:28;;;;;;;14.65;3.83;;;;;;;17.40;70.15;100171.79;1683024;85;21854;-59
2023/04/22 10:53:42;;;;;;;17.00;4.67;;;;;;;17.47;69.79;100166.23;1718774;81;21233;-59
2023/04/22 10:56:41;;;;;;;19.73;4.95;;;;;;;17.55;69.51;100168.16;1703717;83;21248;-59
2023/04/22 11:00:01;;;;;;;16.27;4.20;;;;;;;17.62;69.50;100166.73;1690594;84;21241;-59
2023/04/22 11:03:19;;;;;;;16.95;3.40;;;;;;;17.61;69.09;100165.05;1742673;82;21378;-58
2023/04/22 11:06:29;;;;;;;13.95;4.28;;;;;;;17.35;68.64;100162.45;1695368;83;21549;-59
2023/04/22 11:09:34;;;;;;;11.10;3.45;;;;;;;17.05;68.51;100165.55;1708849;84;21189;-59
2023/04/22 11:12:48;;;;;;;15.60;4.33;;;;;;;16.94;68.77;100169.02;1702283;84;21220;-59
2023/04/22 11:16:01;;;;;;;13.35;3.80;;;;;;;17.00;68.91;100172.30;1737379;82;21320;-59
2023/04/22 11:19:07;;;;;;;9.00;4.25;;;;;;;17.20;69.10;100164.71;1691304;84;21774;-58
2023/04/22 11:22:13;;;;;;;11.93;3.83;;;;;;;17.67;69.30;100162.22;1734576;81;21696;-58
2023/04/22 11:25:20;;;;;;;14.35;4.42;;;;;;;17.89;68.80;100169.56;1725112;81;21210;-58
2023/04/22 11:28:27;;;;;;;13.70;3.72;;;;;;;17.88;68.34;100167.88;1759680;81;21614;-58
2023/04/22 11:31:34;;;;;;;15.40;4.35;;;;;;;17.98;68.23;100168.74;1756515;81;21750;-60
2023/04/22 11:34:39;;;;;;;12.25;3.95;;;;;;;17.97;67.97;100167.88;1723352;81;21569;-58
2023/04/22 11:38:00;;;;;;;9.43;3.70;;;;;;;17.94;67.77;100165.58;1692611;83;21312;-57
2023/04/22 11:41:05;;;;;;;20.35;4.05;;;;;;;17.89;67.63;100173.72;1691677;84;21225;-59
2023/04/22 11:44:11;;;;;;;16.85;4.47;;;;;;;17.80;67.45;100164.88;1735531;81;21224;-59
2023/04/22 11:47:18;;;;;;;10.63;3.87;;;;;;;17.84;67.24;100160.56;1743731;81;21232;-58
2023/04/22 11:50:28;;;;;;;14.80;3.95;;;;;;;17.96;67.24;100161.19;1745211;82;21196;-60
2023/04/22 11:53:33;;;;;;;16.37;4.40;;;;;;;18.23;67.32;100155.14;1687715;83;21952;-57
2023/04/22 11:56:41;;;;;;;13.10;3.70;;;;;;;18.58;67.49;100152.61;1710372;82;21220;-58
2023/04/22 11:59:47;;;;;;;9.63;3.75;;;;;;;18.81;67.20;100145.23;1681674;83;21176;-59
2023/04/22 12:03:07;;;;;;;15.78;3.83;;;;;;;19.04;66.98;100143.92;1736352;82;21225;-59
2023/04/22 12:06:15;;;;;;;12.23;4.33;;;;;;;19.09;66.22;100146.84;1728589;82;21205;-60
2023/04/22 12:09:21;;;;;;;9.23;4.30;;;;;;;19.19;66.10;100134.64;1736893;82;21181;-60
2023/04/22 12:12:35;;;;;;;14.10;3.62;;;;;;;19.40;65.98;100131.02;1768533;79;21271;-59
2023/04/22 12:15:47;;;;;;;16.12;4.33;;;;;;;19.57;65.77;100127.30;1752112;80;21772;-59
2023/04/22 12:18:58;;;;;;;9.08;3.83;;;;;;;19.50;65.14;100127.98;1726393;81;21234;-59
2023/04/22 12:22:04;;;;;;;8.63;3.37;;;;;;;19.23;64.47;100119.19;1708658;81;21757;-59
2023/04/22 12:25:10;;;;;;;9.48;3.58;;;;;;;18.88;64.21;100125.73;1707478;84;21220;-59
2023/04/22 12:28:17;;;;;;;8.78;3.65;;;;;;;18.72;64.28;100123.61;1726566;80;21231;-58
2023/04/22 12:31:22;;;;;;;7.42;3.05;;;;;;;18.52;63.99;100123.88;1745819;80;21255;-58
2023/04/22 12:34:28;;;;;;;7.22;3.00;;;;;;;18.14;63.60;100122.43;1759984;80;21198;-57
2023/04/22 12:37:34;;;;;;;8.48;3.47;;;;;;;17.79;63.52;100134.64;1711687;83;21590;-57
2023/04/22 12:40:41;;;;;;;12.20;4.62;;;;;;;17.48;63.25;100136.09;1748903;81;21800;-58
2023/04/22 12:43:49;;;;;;;7.37;3.50;;;;;;;17.31;63.21;100141.33;1712723;83;22136;-57
2023/04/22 12:46:55;;;;;;;14.20;3.83;;;;;;;17.36;63.34;100133.72;1750342;80;21219;-58
2023/04/22 12:50:05;;;;;;;7.95;3.12;;;;;;;17.51;63.41;100138.41;1713465;81;21208;-59
2023/04/22 12:53:09;;;;;;;8.83;2.87;;;;;;;17.77;63.61;100133.45;1745426;82;21233;-59
2023/04/22 12:56:14;;;;;;;5.75;3.35;;;;;;;18.07;63.46;100128.05;1744879;81;21226;-59
2023/04/22 12:59:19;;;;;;;10.35;3.75;;;;;;;18.30;63.22;100126.80;1700573;82;21201;-58
2023/04/22 13:02:26;;;;;;;13.68;3.55;;;;;;;18.41;62.87;100135.75;1737051;80;21229;-58
2023/04/22 13:05:33;;;;;;;9.98;3.60;;;;;;;18.34;62.33;100125.27;1718736;82;21794;-59
2023/04/22 13:08:39;;;;;;;6.10;3.02;;;;;;;18.42;62.35;100135.22;1749913;80;21233;-59
2023/04/22 13:11:48;;;;;;;7.12;2.50;;;;;;;18.66;62.25;100134.27;1758685;80;21263;-59
2023/04/22 13:14:52;;;;;;;7.00;3.25;;;;;;;18.94;62.17;100131.72;1743534;80;21188;-59
2023/04/22 13:17:58;;;;;;;13.40;3.37;;;;;;;19.11;61.76;100133.58;1745137;80;21240;-57
2023/04/22 13:21:05;;;;;;;8.28;2.83;;;;;;;19.18;61.41;100151.00;1714673;83;21622;-59
2023/04/22 13:24:12;;;;;;;8.85;3.37;;;;;;;18.96;60.74;100167.84;1715278;83;21289;-57
2023/04/22 13:27:19;;;;;;;9.78;2.35;;;;;;;18.00;59.53;100178.50;1715185;83;21300;-58
2023/04/22 13:30:23;;;;;;;6.40;2.50;;;;;;;16.88;59.07;100192.89;1717699;81;21210;-59
2023/04/22 13:33:29;;;;;;;7.80;2.77;;;;;;;15.94;59.20;100179.28;1741828;80;21264;-57
2023/04/22 13:36:34;;;;;;;3.17;2.47;;;;;;;15.25;59.51;100171.12;1744889;80;21296;-58
2023/04/22 13:39:40;;;;;;;8.43;2.72;;;;;;;14.70;59.51;100153.00;1745924;81;21194;-57
2023/04/22 13:42:46;;;;;;;6.92;3.60;;;;;;;14.03;59.65;100201.61;1728607;83;21207;-57
2023/04/22 13:45:53;;;;;;;7.78;4.00;;;;;;;13.31;60.18;100220.81;1747327;80;21224;-57
2023/04/22 13:49:00;;;;;;;7.55;4.85;;;;;;;12.85;60.96;100181.86;1745949;82;21241;-57
2023/04/22 13:52:07;;;;;;;12.40;5.55;;;;;;;12.66;61.57;100157.77;1746767;80;21877;-57
2023/04/22 13:55:13;;;;;;;7.37;5.00;;;;;;;12.66;61.86;100169.27;1744938;81;21205;-57
2023/04/22 13:58:20;;;;;;;7.72;4.80;;;;;;;12.73;61.89;100170.20;1720621;83;21256;-57
2023/04/22 14:01:28;;;;;;;9.23;6.12;;;;;;;12.90;61.90;100179.37;1719921;83;21294;-57
2023/04/22 14:04:34;;;;;;;6.97;4.08;;;;;;;13.09;61.84;100174.64;1720092;83;21283;-58
2023/04/22 14:07:42;;;;;;;7.53;5.65;;;;;;;13.34;61.94;100182.79;1737190;81;21295;-58
2023/04/22 14:10:47;;;;;;;10.43;5.60;;;;;;;13.60;61.90;100191.78;1745711;82;21224;-58
2023/04/22 14:13:53;;;;;;;7.80;5.45;;;;;;;13.80;61.59;100195.52;1745308;81;21204;-58
2023/04/22 14:17:00;;;;;;;10.23;5.60;;;;;;;13.92;61.31;100202.14;1722268;82;21780;-57
2023/04/22 14:20:06;;;;;;;18.23;10.88;;;;;;;14.01;61.11;100195.97;1745539;82;21205;-57
2023/04/22 14:23:12;;;;;;;12.63;8.43;;;;;;;14.10;61.12;100204.38;1745440;82;21773;-57
2023/04/22 14:26:18;;;;;;;12.93;7.42;;;;;;;14.25;61.11;100203.77;1745232;82;21228;-56
2023/04/22 14:29:25;;;;;;;8.70;4.45;;;;;;;14.59;61.27;100208.70;1745968;81;21199;-56